Terminal Aerodrome Forecast
Issued by NWS

Home | Current Version | Previous Version | Graphics & Text | Print | Product List | Glossary On
Versions: 1 2 3 4 5 6 7 8 9 10 11 12 13 14 15 16 17 18 19 20 21 22 23 24 25 26 27 28 29 30
000
FTUS43 KBIS 242324
TAFMOT
TAF
KMOT 242324Z 2500/2524 22011G18KT P6SM SCT070
     FM250400 30013KT P6SM BKN015
     FM250600 32016G22KT P6SM VCSH OVC008
     FM250800 32021G29KT P6SM -SHRA OVC008
     FM251400 30023G34KT P6SM BKN035
     FM251700 29025G35KT P6SM SCT050
     FM252300 30017G24KT P6SM SKC=

USA.gov is the U.S. government's official web portal to all federal, state and local government web resources and services.